sensor_id;sensor_type;location;lat;lon;timestamp;temperature;humidity
66328;DHT22;53133;52.862;6.602;2022-08-30T00:00:38;16.40;99.90
66328;DHT22;53133;52.862;6.602;2022-08-30T00:03:23;16.40;99.90
66328;DHT22;53133;52.862;6.602;2022-08-30T00:05:49;16.40;99.90
66328;DHT22;53133;52.862;6.602;2022-08-30T00:08:15;16.40;99.90
66328;DHT22;53133;52.862;6.602;2022-08-30T00:10:41;16.40;99.90
66328;DHT22;53133;52.862;6.602;2022-08-30T00:13:08;16.40;99.90
66328;DHT22;53133;52.862;6.602;2022-08-30T00:15:37;16.40;99.90
66328;DHT22;53133;52.862;6.602;2022-08-30T00:18:03;16.40;99.90
66328;DHT22;53133;52.862;6.602;2022-08-30T00:20:31;16.30;99.90
66328;DHT22;53133;52.862;6.602;2022-08-30T00:22:58;16.40;99.90
66328;DHT22;53133;52.862;6.602;2022-08-30T00:25:24;16.40;99.90
66328;DHT22;53133;52.862;6.602;2022-08-30T00:27:50;16.40;99.90
66328;DHT22;53133;52.862;6.602;2022-08-30T00:30:16;16.40;99.90
66328;DHT22;53133;52.862;6.602;2022-08-30T00:32:42;16.40;99.90
66328;DHT22;53133;52.862;6.602;2022-08-30T00:35:10;16.40;99.90
66328;DHT22;53133;52.862;6.602;2022-08-30T00:37:36;16.30;99.90
66328;DHT22;53133;52.862;6.602;2022-08-30T00:40:02;16.40;99.90
66328;DHT22;53133;52.862;6.602;2022-08-30T00:42:29;16.40;99.90
66328;DHT22;53133;52.862;6.602;2022-08-30T00:44:55;16.40;99.90
66328;DHT22;53133;52.862;6.602;2022-08-30T00:47:21;16.40;99.90
66328;DHT22;53133;52.862;6.602;2022-08-30T00:49:49;16.40;99.90
66328;DHT22;53133;52.862;6.602;2022-08-30T00:52:17;16.40;99.90
66328;DHT22;53133;52.862;6.602;2022-08-30T00:54:46;16.40;99.90
66328;DHT22;53133;52.862;6.602;2022-08-30T00:57:13;16.50;99.90
66328;DHT22;53133;52.862;6.602;2022-08-30T00:59:40;16.40;99.90
66328;DHT22;53133;52.862;6.602;2022-08-30T01:02:07;16.40;99.90
66328;DHT22;53133;52.862;6.602;2022-08-30T01:04:34;16.40;99.90
66328;DHT22;53133;52.862;6.602;2022-08-30T01:07:00;16.40;99.90
66328;DHT22;53133;52.862;6.602;2022-08-30T01:09:26;16.40;99.90
66328;DHT22;53133;52.862;6.602;2022-08-30T01:11:52;16.30;99.90
66328;DHT22;53133;52.862;6.602;2022-08-30T01:14:18;16.30;99.90
66328;DHT22;53133;52.862;6.602;2022-08-30T01:16:46;16.30;99.90
66328;DHT22;53133;52.862;6.602;2022-08-30T01:19:33;16.30;99.90
66328;DHT22;53133;52.862;6.602;2022-08-30T01:22:09;16.30;99.90
66328;DHT22;53133;52.862;6.602;2022-08-30T01:24:43;16.30;99.90
66328;DHT22;53133;52.862;6.602;2022-08-30T01:27:14;16.20;99.90
66328;DHT22;53133;52.862;6.602;2022-08-30T01:29:40;16.30;99.90
66328;DHT22;53133;52.862;6.602;2022-08-30T01:32:19;16.20;99.90
66328;DHT22;53133;52.862;6.602;2022-08-30T01:34:46;16.30;99.90
66328;DHT22;53133;52.862;6.602;2022-08-30T01:37:16;16.20;99.90
66328;DHT22;53133;52.862;6.602;2022-08-30T01:39:46;16.20;99.90
66328;DHT22;53133;52.862;6.602;2022-08-30T01:42:14;16.20;99.90
66328;DHT22;53133;52.862;6.602;2022-08-30T01:44:42;16.20;99.90
66328;DHT22;53133;52.862;6.602;2022-08-30T01:47:07;16.20;99.90
66328;DHT22;53133;52.862;6.602;2022-08-30T01:49:33;16.20;99.90
66328;DHT22;53133;52.862;6.602;2022-08-30T01:51:59;16.20;99.90
66328;DHT22;53133;52.862;6.602;2022-08-30T01:54:24;16.20;99.90
66328;DHT22;53133;52.862;6.602;2022-08-30T01:56:50;16.20;99.90
66328;DHT22;53133;52.862;6.602;2022-08-30T01:59:15;16.20;99.90
66328;DHT22;53133;52.862;6.602;2022-08-30T02:01:41;16.10;99.90
66328;DHT22;53133;52.862;6.602;2022-08-30T02:04:08;16.10;99.90
66328;DHT22;53133;52.862;6.602;2022-08-30T02:06:34;16.10;99.90
66328;DHT22;53133;52.862;6.602;2022-08-30T02:09:01;16.10;99.90
66328;DHT22;53133;52.862;6.602;2022-08-30T02:11:27;16.10;99.90
66328;DHT22;53133;52.862;6.602;2022-08-30T02:13:52;16.10;99.90
66328;DHT22;53133;52.862;6.602;2022-08-30T02:16:20;16.10;99.90
66328;DHT22;53133;52.862;6.602;2022-08-30T02:18:47;16.10;99.90
66328;DHT22;53133;52.862;6.602;2022-08-30T02:21:14;16.10;99.90
66328;DHT22;53133;52.862;6.602;2022-08-30T02:23:40;16.00;99.90
66328;DHT22;53133;52.862;6.602;2022-08-30T02:26:07;16.00;99.90
66328;DHT22;53133;52.862;6.602;2022-08-30T02:28:33;16.00;99.90
66328;DHT22;53133;52.862;6.602;2022-08-30T02:30:59;15.90;99.90
66328;DHT22;53133;52.862;6.602;2022-08-30T02:33:25;15.90;99.90
66328;DHT22;53133;52.862;6.602;2022-08-30T02:35:51;15.80;99.90
66328;DHT22;53133;52.862;6.602;2022-08-30T02:38:17;15.80;99.90
66328;DHT22;53133;52.862;6.602;2022-08-30T02:40:42;15.80;99.90
66328;DHT22;53133;52.862;6.602;2022-08-30T02:43:09;15.80;99.90
66328;DHT22;53133;52.862;6.602;2022-08-30T02:45:35;15.70;99.90
66328;DHT22;53133;52.862;6.602;2022-08-30T02:48:01;15.70;99.90
66328;DHT22;53133;52.862;6.602;2022-08-30T02:50:27;15.60;99.90
66328;DHT22;53133;52.862;6.602;2022-08-30T02:52:53;15.60;99.90
66328;DHT22;53133;52.862;6.602;2022-08-30T02:55:18;15.60;99.90
66328;DHT22;53133;52.862;6.602;2022-08-30T02:57:44;15.50;99.90
66328;DHT22;53133;52.862;6.602;2022-08-30T03:00:13;15.50;99.90
66328;DHT22;53133;52.862;6.602;2022-08-30T03:02:39;15.50;99.90
66328;DHT22;53133;52.862;6.602;2022-08-30T03:05:07;15.40;99.90
66328;DHT22;53133;52.862;6.602;2022-08-30T03:07:32;15.40;99.90
66328;DHT22;53133;52.862;6.602;2022-08-30T03:09:58;15.30;99.90
66328;DHT22;53133;52.862;6.602;2022-08-30T03:12:24;15.30;99.90
66328;DHT22;53133;52.862;6.602;2022-08-30T03:14:50;15.20;99.90
66328;DHT22;53133;52.862;6.602;2022-08-30T03:17:15;15.20;99.90
66328;DHT22;53133;52.862;6.602;2022-08-30T03:19:42;15.20;99.90
66328;DHT22;53133;52.862;6.602;2022-08-30T03:22:09;15.10;99.90
66328;DHT22;53133;52.862;6.602;2022-08-30T03:24:35;15.10;99.90
66328;DHT22;53133;52.862;6.602;2022-08-30T03:27:00;15.10;99.90
66328;DHT22;53133;52.862;6.602;2022-08-30T03:29:26;15.00;99.90
66328;DHT22;53133;52.862;6.602;2022-08-30T03:31:54;15.00;99.90
66328;DHT22;53133;52.862;6.602;2022-08-30T03:34:21;15.00;99.90
66328;DHT22;53133;52.862;6.602;2022-08-30T03:36:49;14.90;99.90
66328;DHT22;53133;52.862;6.602;2022-08-30T03:39:14;14.90;99.90
66328;DHT22;53133;52.862;6.602;2022-08-30T03:41:40;14.90;99.90
66328;DHT22;53133;52.862;6.602;2022-08-30T03:44:05;14.80;99.90
66328;DHT22;53133;52.862;6.602;2022-08-30T03:46:31;14.80;99.90
66328;DHT22;53133;52.862;6.602;2022-08-30T03:48:57;14.70;99.90
66328;DHT22;53133;52.862;6.602;2022-08-30T03:51:24;14.70;99.90
66328;DHT22;53133;52.862;6.602;2022-08-30T03:53:49;14.70;99.90
66328;DHT22;53133;52.862;6.602;2022-08-30T03:56:16;14.60;99.90
66328;DHT22;53133;52.862;6.602;2022-08-30T03:58:42;14.60;99.90
66328;DHT22;53133;52.862;6.602;2022-08-30T04:01:08;14.60;99.90
66328;DHT22;53133;52.862;6.602;2022-08-30T04:03:34;14.60;99.90
66328;DHT22;53133;52.862;6.602;2022-08-30T04:06:00;14.50;99.90
66328;DHT22;53133;52.862;6.602;2022-08-30T04:08:26;14.50;99.80
66328;DHT22;53133;52.862;6.602;2022-08-30T04:10:52;14.50;99.80
66328;DHT22;53133;52.862;6.602;2022-08-30T04:13:18;14.40;99.90
66328;DHT22;53133;52.862;6.602;2022-08-30T04:15:44;14.40;99.90
66328;DHT22;53133;52.862;6.602;2022-08-30T04:18:10;14.40;99.90
66328;DHT22;53133;52.862;6.602;2022-08-30T04:20:36;14.40;99.80
66328;DHT22;53133;52.862;6.602;2022-08-30T04:23:04;14.40;99.90
66328;DHT22;53133;52.862;6.602;2022-08-30T04:25:32;14.40;99.90
66328;DHT22;53133;52.862;6.602;2022-08-30T04:28:00;14.40;99.90
66328;DHT22;53133;52.862;6.602;2022-08-30T04:30:25;14.40;99.90
66328;DHT22;53133;52.862;6.602;2022-08-30T04:32:51;14.40;99.90
66328;DHT22;53133;52.862;6.602;2022-08-30T04:35:17;14.40;99.90
66328;DHT22;53133;52.862;6.602;2022-08-30T04:37:42;14.40;99.90
66328;DHT22;53133;52.862;6.602;2022-08-30T04:40:09;14.30;99.90
66328;DHT22;53133;52.862;6.602;2022-08-30T04:42:35;14.30;99.90
66328;DHT22;53133;52.862;6.602;2022-08-30T04:45:03;14.20;99.90
66328;DHT22;53133;52.862;6.602;2022-08-30T04:47:29;14.20;99.90
66328;DHT22;53133;52.862;6.602;2022-08-30T04:49:54;14.20;99.90
66328;DHT22;53133;52.862;6.602;2022-08-30T04:52:20;14.20;99.90
66328;DHT22;53133;52.862;6.602;2022-08-30T04:54:45;14.20;99.90
66328;DHT22;53133;52.862;6.602;2022-08-30T04:57:11;14.20;99.90
66328;DHT22;53133;52.862;6.602;2022-08-30T04:59:39;14.20;99.90
66328;DHT22;53133;52.862;6.602;2022-08-30T05:02:05;14.20;99.90
66328;DHT22;53133;52.862;6.602;2022-08-30T05:04:31;14.20;99.90
66328;DHT22;53133;52.862;6.602;2022-08-30T05:06:56;14.20;99.90
66328;DHT22;53133;52.862;6.602;2022-08-30T05:09:22;14.10;99.90
66328;DHT22;53133;52.862;6.602;2022-08-30T05:11:47;14.10;99.90
66328;DHT22;53133;52.862;6.602;2022-08-30T05:14:13;14.00;99.90
66328;DHT22;53133;52.862;6.602;2022-08-30T05:16:39;14.00;99.90
66328;DHT22;53133;52.862;6.602;2022-08-30T05:19:06;14.00;99.90
66328;DHT22;53133;52.862;6.602;2022-08-30T05:21:32;14.00;99.90
66328;DHT22;53133;52.862;6.602;2022-08-30T05:23:59;14.00;99.90
66328;DHT22;53133;52.862;6.602;2022-08-30T05:26:28;14.00;99.90
66328;DHT22;53133;52.862;6.602;2022-08-30T05:28:54;14.00;99.90
66328;DHT22;53133;52.862;6.602;2022-08-30T05:31:23;14.00;99.90
66328;DHT22;53133;52.862;6.602;2022-08-30T05:33:49;14.10;99.90
66328;DHT22;53133;52.862;6.602;2022-08-30T05:36:17;14.00;99.90
66328;DHT22;53133;52.862;6.602;2022-08-30T05:38:43;14.00;99.90
66328;DHT22;53133;52.862;6.602;2022-08-30T05:41:09;14.00;99.90
66328;DHT22;53133;52.862;6.602;2022-08-30T05:43:35;14.00;99.90
66328;DHT22;53133;52.862;6.602;2022-08-30T05:46:10;14.10;99.90
66328;DHT22;53133;52.862;6.602;2022-08-30T05:48:38;14.10;99.90
66328;DHT22;53133;52.862;6.602;2022-08-30T05:51:05;14.10;99.90
66328;DHT22;53133;52.862;6.602;2022-08-30T05:53:30;14.20;99.90
66328;DHT22;53133;52.862;6.602;2022-08-30T05:55:56;14.30;99.90
66328;DHT22;53133;52.862;6.602;2022-08-30T05:58:22;14.30;99.90
66328;DHT22;53133;52.862;6.602;2022-08-30T06:00:48;14.30;99.90
66328;DHT22;53133;52.862;6.602;2022-08-30T06:03:13;14.40;99.90
66328;DHT22;53133;52.862;6.602;2022-08-30T06:05:39;14.50;99.90
66328;DHT22;53133;52.862;6.602;2022-08-30T06:08:04;14.50;99.90
66328;DHT22;53133;52.862;6.602;2022-08-30T06:10:30;14.60;99.90
66328;DHT22;53133;52.862;6.602;2022-08-30T06:12:55;14.60;99.90
66328;DHT22;53133;52.862;6.602;2022-08-30T06:15:21;14.70;99.90
66328;DHT22;53133;52.862;6.602;2022-08-30T06:17:47;14.70;99.90
66328;DHT22;53133;52.862;6.602;2022-08-30T06:20:13;14.80;99.90
66328;DHT22;53133;52.862;6.602;2022-08-30T06:22:39;14.80;99.90
66328;DHT22;53133;52.862;6.602;2022-08-30T06:25:05;14.80;99.90
66328;DHT22;53133;52.862;6.602;2022-08-30T06:27:31;14.90;99.90
66328;DHT22;53133;52.862;6.602;2022-08-30T06:29:57;15.00;99.90
66328;DHT22;53133;52.862;6.602;2022-08-30T06:32:22;15.00;99.90
66328;DHT22;53133;52.862;6.602;2022-08-30T06:34:48;15.10;99.90
66328;DHT22;53133;52.862;6.602;2022-08-30T06:37:14;15.10;99.90
66328;DHT22;53133;52.862;6.602;2022-08-30T06:39:39;15.10;99.90
66328;DHT22;53133;52.862;6.602;2022-08-30T06:42:05;15.20;99.90
66328;DHT22;53133;52.862;6.602;2022-08-30T06:44:31;15.20;99.90
66328;DHT22;53133;52.862;6.602;2022-08-30T06:46:56;15.30;99.90
66328;DHT22;53133;52.862;6.602;2022-08-30T06:49:22;15.30;99.90
66328;DHT22;53133;52.862;6.602;2022-08-30T06:51:48;15.40;99.90
66328;DHT22;53133;52.862;6.602;2022-08-30T06:54:14;15.40;99.90
66328;DHT22;53133;52.862;6.602;2022-08-30T06:56:39;15.40;99.90
66328;DHT22;53133;52.862;6.602;2022-08-30T06:59:05;15.50;99.90
66328;DHT22;53133;52.862;6.602;2022-08-30T07:01:31;15.50;99.90
66328;DHT22;53133;52.862;6.602;2022-08-30T07:03:57;15.60;99.90
66328;DHT22;53133;52.862;6.602;2022-08-30T07:06:24;15.60;99.90
66328;DHT22;53133;52.862;6.602;2022-08-30T07:08:50;15.60;99.90
66328;DHT22;53133;52.862;6.602;2022-08-30T07:11:33;15.70;99.90
66328;DHT22;53133;52.862;6.602;2022-08-30T07:13:59;15.70;99.90
66328;DHT22;53133;52.862;6.602;2022-08-30T07:16:25;15.80;99.90
66328;DHT22;53133;52.862;6.602;2022-08-30T07:18:51;15.80;99.70
66328;DHT22;53133;52.862;6.602;2022-08-30T07:21:26;15.90;99.60
66328;DHT22;53133;52.862;6.602;2022-08-30T07:23:53;15.90;99.50
66328;DHT22;53133;52.862;6.602;2022-08-30T07:26:28;16.00;99.50
66328;DHT22;53133;52.862;6.602;2022-08-30T07:28:54;16.10;99.50
66328;DHT22;53133;52.862;6.602;2022-08-30T07:31:20;16.10;99.40
66328;DHT22;53133;52.862;6.602;2022-08-30T07:33:46;16.20;99.30
66328;DHT22;53133;52.862;6.602;2022-08-30T07:36:13;16.20;99.50
66328;DHT22;53133;52.862;6.602;2022-08-30T07:38:40;16.20;99.20
66328;DHT22;53133;52.862;6.602;2022-08-30T07:41:05;16.30;99.20
66328;DHT22;53133;52.862;6.602;2022-08-30T07:43:32;16.30;99.10
66328;DHT22;53133;52.862;6.602;2022-08-30T07:46:06;16.40;99.00
66328;DHT22;53133;52.862;6.602;2022-08-30T07:48:33;16.40;98.60
66328;DHT22;53133;52.862;6.602;2022-08-30T07:50:59;16.50;98.50
66328;DHT22;53133;52.862;6.602;2022-08-30T07:53:25;16.60;98.30
66328;DHT22;53133;52.862;6.602;2022-08-30T07:55:50;16.60;98.10
66328;DHT22;53133;52.862;6.602;2022-08-30T07:58:16;16.70;97.70
66328;DHT22;53133;52.862;6.602;2022-08-30T08:00:42;16.60;97.30
66328;DHT22;53133;52.862;6.602;2022-08-30T08:03:08;16.70;97.10
66328;DHT22;53133;52.862;6.602;2022-08-30T08:05:42;16.80;97.00
66328;DHT22;53133;52.862;6.602;2022-08-30T08:08:08;16.80;96.80
66328;DHT22;53133;52.862;6.602;2022-08-30T08:10:36;16.90;96.50
66328;DHT22;53133;52.862;6.602;2022-08-30T08:13:02;16.90;96.30
66328;DHT22;53133;52.862;6.602;2022-08-30T08:15:28;16.90;96.30
66328;DHT22;53133;52.862;6.602;2022-08-30T08:17:53;17.00;96.20
66328;DHT22;53133;52.862;6.602;2022-08-30T08:20:19;17.00;96.10
66328;DHT22;53133;52.862;6.602;2022-08-30T08:22:45;17.10;96.00
66328;DHT22;53133;52.862;6.602;2022-08-30T08:25:10;17.10;96.00
66328;DHT22;53133;52.862;6.602;2022-08-30T08:27:36;17.20;96.10
66328;DHT22;53133;52.862;6.602;2022-08-30T08:30:02;17.20;95.80
66328;DHT22;53133;52.862;6.602;2022-08-30T08:32:28;17.30;95.20
66328;DHT22;53133;52.862;6.602;2022-08-30T08:34:53;17.30;94.90
66328;DHT22;53133;52.862;6.602;2022-08-30T08:37:19;17.40;94.60
66328;DHT22;53133;52.862;6.602;2022-08-30T08:39:45;17.40;94.10
66328;DHT22;53133;52.862;6.602;2022-08-30T08:42:18;17.50;94.00
66328;DHT22;53133;52.862;6.602;2022-08-30T08:47:35;17.60;93.80
66328;DHT22;53133;52.862;6.602;2022-08-30T08:50:05;17.60;93.50
66328;DHT22;53133;52.862;6.602;2022-08-30T08:55:21;17.70;93.40
66328;DHT22;53133;52.862;6.602;2022-08-30T08:57:48;17.70;93.60
66328;DHT22;53133;52.862;6.602;2022-08-30T09:00:14;17.80;93.40
66328;DHT22;53133;52.862;6.602;2022-08-30T09:02:46;17.80;93.10
66328;DHT22;53133;52.862;6.602;2022-08-30T09:05:16;17.80;93.00
66328;DHT22;53133;52.862;6.602;2022-08-30T09:07:48;17.90;92.20
66328;DHT22;53133;52.862;6.602;2022-08-30T09:10:15;17.90;92.30
66328;DHT22;53133;52.862;6.602;2022-08-30T09:12:41;17.90;91.80
66328;DHT22;53133;52.862;6.602;2022-08-30T09:15:16;18.00;91.90
66328;DHT22;53133;52.862;6.602;2022-08-30T09:17:54;18.00;91.70
66328;DHT22;53133;52.862;6.602;2022-08-30T09:20:47;18.10;91.60
66328;DHT22;53133;52.862;6.602;2022-08-30T09:25:49;18.10;91.20
66328;DHT22;53133;52.862;6.602;2022-08-30T09:29:03;18.20;90.80
66328;DHT22;53133;52.862;6.602;2022-08-30T09:31:20;18.20;90.00
66328;DHT22;53133;52.862;6.602;2022-08-30T09:34:04;18.30;89.70
66328;DHT22;53133;52.862;6.602;2022-08-30T09:39:16;18.30;88.90
66328;DHT22;53133;52.862;6.602;2022-08-30T09:41:44;18.30;88.80
66328;DHT22;53133;52.862;6.602;2022-08-30T09:46:46;18.40;89.00
66328;DHT22;53133;52.862;6.602;2022-08-30T09:49:36;18.40;87.40
66328;DHT22;53133;52.862;6.602;2022-08-30T09:52:08;18.50;88.60
66328;DHT22;53133;52.862;6.602;2022-08-30T09:57:46;18.50;89.00
66328;DHT22;53133;52.862;6.602;2022-08-30T10:00:20;18.60;88.30
66328;DHT22;53133;52.862;6.602;2022-08-30T10:03:03;18.60;87.40
66328;DHT22;53133;52.862;6.602;2022-08-30T10:05:51;18.60;86.90
66328;DHT22;53133;52.862;6.602;2022-08-30T10:19:16;18.80;86.90
66328;DHT22;53133;52.862;6.602;2022-08-30T10:21:47;18.90;86.40
66328;DHT22;53133;52.862;6.602;2022-08-30T10:24:17;19.00;87.00
66328;DHT22;53133;52.862;6.602;2022-08-30T10:26:55;19.00;86.50
66328;DHT22;53133;52.862;6.602;2022-08-30T10:29:27;19.00;86.20
66328;DHT22;53133;52.862;6.602;2022-08-30T10:37:41;19.20;85.40
66328;DHT22;53133;52.862;6.602;2022-08-30T10:40:30;19.20;84.70
66328;DHT22;53133;52.862;6.602;2022-08-30T10:43:32;19.20;84.50
66328;DHT22;53133;52.862;6.602;2022-08-30T10:46:06;19.30;84.80
66328;DHT22;53133;52.862;6.602;2022-08-30T10:48:40;19.30;83.90
66328;DHT22;53133;52.862;6.602;2022-08-30T10:51:11;19.40;84.20
66328;DHT22;53133;52.862;6.602;2022-08-30T10:53:59;19.40;84.80
66328;DHT22;53133;52.862;6.602;2022-08-30T10:56:28;19.50;83.30
66328;DHT22;53133;52.862;6.602;2022-08-30T10:58:55;19.60;83.40
66328;DHT22;53133;52.862;6.602;2022-08-30T11:01:40;19.60;83.40
66328;DHT22;53133;52.862;6.602;2022-08-30T11:10:07;19.70;80.00
66328;DHT22;53133;52.862;6.602;2022-08-30T11:15:22;19.70;81.20
66328;DHT22;53133;52.862;6.602;2022-08-30T11:18:00;19.80;82.10
66328;DHT22;53133;52.862;6.602;2022-08-30T11:20:40;19.80;81.30
66328;DHT22;53133;52.862;6.602;2022-08-30T11:23:33;19.90;81.70
66328;DHT22;53133;52.862;6.602;2022-08-30T11:26:04;20.00;80.80
66328;DHT22;53133;52.862;6.602;2022-08-30T11:39:00;20.20;78.60
66328;DHT22;53133;52.862;6.602;2022-08-30T11:41:32;20.20;78.00
66328;DHT22;53133;52.862;6.602;2022-08-30T11:46:47;20.30;77.50
66328;DHT22;53133;52.862;6.602;2022-08-30T12:02:40;20.50;76.30
66328;DHT22;53133;52.862;6.602;2022-08-30T12:05:07;20.60;76.00
66328;DHT22;53133;52.862;6.602;2022-08-30T12:07:57;20.70;76.30
66328;DHT22;53133;52.862;6.602;2022-08-30T12:10:36;20.70;75.00
66328;DHT22;53133;52.862;6.602;2022-08-30T12:13:02;20.70;74.80
66328;DHT22;53133;52.862;6.602;2022-08-30T12:15:58;20.80;75.60
66328;DHT22;53133;52.862;6.602;2022-08-30T12:18:45;20.80;75.50
66328;DHT22;53133;52.862;6.602;2022-08-30T12:26:42;20.90;74.60
66328;DHT22;53133;52.862;6.602;2022-08-30T12:29:27;20.90;74.40
66328;DHT22;53133;52.862;6.602;2022-08-30T12:32:02;21.00;75.40
66328;DHT22;53133;52.862;6.602;2022-08-30T12:34:47;21.00;75.00
66328;DHT22;53133;52.862;6.602;2022-08-30T12:37:35;21.00;76.00
66328;DHT22;53133;52.862;6.602;2022-08-30T12:42:34;20.90;77.00
66328;DHT22;53133;52.862;6.602;2022-08-30T12:45:05;20.80;76.60
66328;DHT22;53133;52.862;6.602;2022-08-30T12:47:51;20.80;76.50
66328;DHT22;53133;52.862;6.602;2022-08-30T12:50:26;20.80;77.40
66328;DHT22;53133;52.862;6.602;2022-08-30T12:53:12;20.80;77.20
66328;DHT22;53133;52.862;6.602;2022-08-30T12:55:52;20.80;77.70
66328;DHT22;53133;52.862;6.602;2022-08-30T13:01:32;20.90;76.50
66328;DHT22;53133;52.862;6.602;2022-08-30T13:06:56;21.10;79.70
66328;DHT22;53133;52.862;6.602;2022-08-30T13:09:42;21.10;78.30
66328;DHT22;53133;52.862;6.602;2022-08-30T13:12:23;21.20;73.30
66328;DHT22;53133;52.862;6.602;2022-08-30T13:14:50;21.30;76.40
66328;DHT22;53133;52.862;6.602;2022-08-30T13:24:56;21.40;74.30
66328;DHT22;53133;52.862;6.602;2022-08-30T13:27:22;21.50;74.10
66328;DHT22;53133;52.862;6.602;2022-08-30T13:29:48;21.50;74.00
66328;DHT22;53133;52.862;6.602;2022-08-30T13:32:13;21.60;74.00
66328;DHT22;53133;52.862;6.602;2022-08-30T13:34:40;21.60;74.10
66328;DHT22;53133;52.862;6.602;2022-08-30T13:37:06;21.60;73.90
66328;DHT22;53133;52.862;6.602;2022-08-30T13:39:33;21.70;74.30
66328;DHT22;53133;52.862;6.602;2022-08-30T13:41:59;21.80;75.60
66328;DHT22;53133;52.862;6.602;2022-08-30T13:44:25;21.80;73.70
66328;DHT22;53133;52.862;6.602;2022-08-30T13:46:53;21.70;72.10
66328;DHT22;53133;52.862;6.602;2022-08-30T13:49:22;21.70;73.00
66328;DHT22;53133;52.862;6.602;2022-08-30T13:51:48;21.70;72.80
66328;DHT22;53133;52.862;6.602;2022-08-30T13:54:15;21.70;74.10
66328;DHT22;53133;52.862;6.602;2022-08-30T13:56:41;21.80;72.60
66328;DHT22;53133;52.862;6.602;2022-08-30T13:59:09;21.80;73.10
66328;DHT22;53133;52.862;6.602;2022-08-30T14:01:35;21.80;72.70
66328;DHT22;53133;52.862;6.602;2022-08-30T14:04:01;21.90;73.70
66328;DHT22;53133;52.862;6.602;2022-08-30T14:06:27;21.90;74.50
66328;DHT22;53133;52.862;6.602;2022-08-30T14:08:52;21.90;73.70
66328;DHT22;53133;52.862;6.602;2022-08-30T14:11:19;21.90;73.90
66328;DHT22;53133;52.862;6.602;2022-08-30T14:13:46;21.80;73.40
66328;DHT22;53133;52.862;6.602;2022-08-30T14:16:12;21.70;74.90
66328;DHT22;53133;52.862;6.602;2022-08-30T14:18:38;21.60;75.30
66328;DHT22;53133;52.862;6.602;2022-08-30T14:21:03;21.60;75.20
66328;DHT22;53133;52.862;6.602;2022-08-30T14:23:29;21.60;74.00
66328;DHT22;53133;52.862;6.602;2022-08-30T14:25:55;21.50;74.50
66328;DHT22;53133;52.862;6.602;2022-08-30T14:28:21;21.60;75.10
66328;DHT22;53133;52.862;6.602;2022-08-30T14:30:47;21.60;73.70
66328;DHT22;53133;52.862;6.602;2022-08-30T14:33:13;21.70;72.70
66328;DHT22;53133;52.862;6.602;2022-08-30T14:35:39;21.70;73.60
66328;DHT22;53133;52.862;6.602;2022-08-30T14:38:05;21.80;74.10
66328;DHT22;53133;52.862;6.602;2022-08-30T14:40:31;21.80;74.80
66328;DHT22;53133;52.862;6.602;2022-08-30T14:42:56;21.90;75.00
66328;DHT22;53133;52.862;6.602;2022-08-30T14:45:22;21.90;75.30
66328;DHT22;53133;52.862;6.602;2022-08-30T14:47:47;21.80;75.60
66328;DHT22;53133;52.862;6.602;2022-08-30T14:50:13;21.80;76.00
66328;DHT22;53133;52.862;6.602;2022-08-30T14:52:39;21.70;76.40
66328;DHT22;53133;52.862;6.602;2022-08-30T14:55:07;21.60;77.10
66328;DHT22;53133;52.862;6.602;2022-08-30T14:57:33;21.60;77.70
66328;DHT22;53133;52.862;6.602;2022-08-30T14:59:59;21.60;78.70
66328;DHT22;53133;52.862;6.602;2022-08-30T15:02:24;21.60;79.00
66328;DHT22;53133;52.862;6.602;2022-08-30T15:04:50;21.70;78.20
66328;DHT22;53133;52.862;6.602;2022-08-30T15:07:16;21.70;77.70
66328;DHT22;53133;52.862;6.602;2022-08-30T15:09:42;21.80;77.70
66328;DHT22;53133;52.862;6.602;2022-08-30T15:12:07;21.80;76.70
66328;DHT22;53133;52.862;6.602;2022-08-30T15:14:33;21.70;77.50
66328;DHT22;53133;52.862;6.602;2022-08-30T15:16:59;21.70;76.90
66328;DHT22;53133;52.862;6.602;2022-08-30T15:19:27;21.60;77.90
66328;DHT22;53133;52.862;6.602;2022-08-30T15:21:53;21.60;78.40
66328;DHT22;53133;52.862;6.602;2022-08-30T15:24:22;21.70;78.30
66328;DHT22;53133;52.862;6.602;2022-08-30T15:26:48;21.70;78.10
66328;DHT22;53133;52.862;6.602;2022-08-30T15:29:15;21.80;78.40
66328;DHT22;53133;52.862;6.602;2022-08-30T15:31:42;21.90;77.60
66328;DHT22;53133;52.862;6.602;2022-08-30T15:34:10;21.90;77.20
66328;DHT22;53133;52.862;6.602;2022-08-30T15:36:37;21.90;76.50
66328;DHT22;53133;52.862;6.602;2022-08-30T15:39:04;21.90;76.90
66328;DHT22;53133;52.862;6.602;2022-08-30T15:41:30;21.90;76.80
66328;DHT22;53133;52.862;6.602;2022-08-30T15:43:57;21.90;77.10
66328;DHT22;53133;52.862;6.602;2022-08-30T15:46:25;21.80;76.90
66328;DHT22;53133;52.862;6.602;2022-08-30T15:48:53;21.80;77.10
66328;DHT22;53133;52.862;6.602;2022-08-30T15:51:22;21.70;77.10
66328;DHT22;53133;52.862;6.602;2022-08-30T15:53:50;21.60;77.50
66328;DHT22;53133;52.862;6.602;2022-08-30T15:56:16;21.60;78.00
66328;DHT22;53133;52.862;6.602;2022-08-30T15:58:43;21.60;78.40
66328;DHT22;53133;52.862;6.602;2022-08-30T16:01:10;21.60;77.80
66328;DHT22;53133;52.862;6.602;2022-08-30T16:03:36;21.60;78.10
66328;DHT22;53133;52.862;6.602;2022-08-30T16:06:12;21.60;78.70
66328;DHT22;53133;52.862;6.602;2022-08-30T16:08:38;21.70;78.20
66328;DHT22;53133;52.862;6.602;2022-08-30T16:11:06;21.70;78.10
66328;DHT22;53133;52.862;6.602;2022-08-30T16:13:32;21.70;77.50
66328;DHT22;53133;52.862;6.602;2022-08-30T16:16:02;21.70;77.80
66328;DHT22;53133;52.862;6.602;2022-08-30T16:18:27;21.70;78.30
66328;DHT22;53133;52.862;6.602;2022-08-30T16:21:15;21.70;78.40
66328;DHT22;53133;52.862;6.602;2022-08-30T16:23:43;21.70;78.20
66328;DHT22;53133;52.862;6.602;2022-08-30T16:26:10;21.60;78.90
66328;DHT22;53133;52.862;6.602;2022-08-30T16:28:36;21.60;79.00
66328;DHT22;53133;52.862;6.602;2022-08-30T16:31:03;21.50;79.90
66328;DHT22;53133;52.862;6.602;2022-08-30T16:33:30;21.50;80.30
66328;DHT22;53133;52.862;6.602;2022-08-30T16:35:56;21.40;80.80
66328;DHT22;53133;52.862;6.602;2022-08-30T16:38:24;21.40;81.50
66328;DHT22;53133;52.862;6.602;2022-08-30T16:40:50;21.30;81.60
66328;DHT22;53133;52.862;6.602;2022-08-30T16:43:16;21.30;81.50
66328;DHT22;53133;52.862;6.602;2022-08-30T16:45:42;21.30;81.20
66328;DHT22;53133;52.862;6.602;2022-08-30T16:48:09;21.30;81.40
66328;DHT22;53133;52.862;6.602;2022-08-30T16:50:37;21.30;81.40
66328;DHT22;53133;52.862;6.602;2022-08-30T16:53:03;21.30;80.80
66328;DHT22;53133;52.862;6.602;2022-08-30T16:55:29;21.30;80.90
66328;DHT22;53133;52.862;6.602;2022-08-30T16:57:55;21.30;81.10
66328;DHT22;53133;52.862;6.602;2022-08-30T17:00:21;21.30;80.60
66328;DHT22;53133;52.862;6.602;2022-08-30T17:02:47;21.30;81.00
66328;DHT22;53133;52.862;6.602;2022-08-30T17:05:13;21.30;81.40
66328;DHT22;53133;52.862;6.602;2022-08-30T17:07:39;21.20;81.90